Main page
METAR-TAF:

METAR-TAF

Airports :

Teniente Coronel Luis A. Mantilla International Airport

Tulcán, Ecuador

latitude: 00-48-34N, longitude: 077-42-29W, elevation: 2941 m

Current weather observation

The report was made 14 hours and 16 minutes ago, at 21:00 UTC
Wind 10 kt from the East
Temperature 16°C
Humidity 72%
Pressure 1028 hPa
Visibility 10 km or more
Broken clouds at a height of 2000 ft
Scattered clouds at a height of 10000 ft

METAR: SETU 312100Z 08010KT 9999 BKN020 SCT100 16/11 Q1028

Time: 06:16 (11:16 UTC)


TAF: missing

Weather observations and forecasts of more than 4000 airports (METAR and TAF reports).

The available stations are represented by yellow and red dots on the map.

Hover mouse over dot to see the name of the station.

Then click to see weather observations and forecasts.

To change the map : click on the green buttons with a black cross to zoom in, on the green button with a dash to zoom out, or on the green arrows for adjacent maps.


METAR-TAF: